createdAt,value
2023-04-30T05:12:58.076Z,98623.19
2023-04-30T05:21:09.194Z,98642.28
2023-04-30T05:30:35.789Z,98628.16
2023-04-30T05:33:03.767Z,98631.59
2023-04-30T05:39:38.568Z,98626.16
2023-04-30T05:42:06.290Z,98628.84
2023-04-30T05:44:33.847Z,98639.59
2023-04-30T05:51:43.317Z,98630.84
2023-04-30T05:54:10.905Z,98633.34
2023-04-30T05:56:38.467Z,98642.19
2023-04-30T05:59:05.989Z,98631.88
2023-04-30T06:01:33.960Z,98633.88
2023-04-30T06:04:01.488Z,98636.06
2023-04-30T06:06:28.999Z,98634.81
2023-04-30T06:08:56.529Z,98635.13
2023-04-30T06:11:25.869Z,98633.06
2023-04-30T06:13:54.301Z,98631.75
2023-04-30T06:16:23.671Z,98631.47
2023-04-30T06:18:53.498Z,98631.31
2023-04-30T06:21:21.432Z,98628.22
2023-04-30T06:23:48.919Z,98623.44
2023-04-30T06:26:16.408Z,98616.22
2023-04-30T06:28:43.858Z,98629.50
2023-04-30T06:31:11.456Z,98627.31
2023-04-30T06:33:38.931Z,98622.97
2023-04-30T06:36:06.873Z,98624.56
2023-04-30T06:38:34.357Z,98627.38
2023-04-30T06:41:02.117Z,98627.44
2023-04-30T06:43:29.606Z,98625.56
2023-04-30T06:45:57.103Z,98630.03
2023-04-30T06:48:24.830Z,98624.75
2023-04-30T06:50:52.731Z,98619.34
2023-04-30T06:53:20.176Z,98628.19
2023-04-30T06:55:48.454Z,98628.88
2023-04-30T06:58:16.073Z,98623.53
2023-04-30T07:00:43.789Z,98628.75
2023-04-30T07:03:11.467Z,98628.56
2023-04-30T07:05:38.980Z,98615.88
2023-04-30T07:08:07.570Z,98621.97
2023-04-30T07:10:35.120Z,98620.75
2023-04-30T07:13:02.602Z,98622.59
2023-04-30T07:15:30.052Z,98622.84
2023-04-30T07:17:58.062Z,98621.13
2023-04-30T07:20:26.033Z,98625.03
2023-04-30T07:22:54.656Z,98617.78
2023-04-30T07:25:22.213Z,98624.56
2023-04-30T07:27:51.733Z,98619.16
2023-04-30T07:30:19.210Z,98627.16
2023-04-30T07:32:47.902Z,98618.22
2023-04-30T07:35:15.728Z,98627.41
2023-04-30T07:37:44.012Z,98629.69
2023-04-30T07:40:15.270Z,98627.97
2023-04-30T07:42:47.691Z,98636.69
2023-04-30T07:45:15.263Z,98640.72
2023-04-30T07:47:42.850Z,98633.25
2023-04-30T07:50:12.473Z,98631.50
2023-04-30T07:52:39.914Z,98629.00
2023-04-30T07:55:08.227Z,98638.56
2023-04-30T07:57:36.316Z,98637.50
2023-04-30T08:00:04.424Z,98640.41
2023-04-30T08:02:32.186Z,98647.13
2023-04-30T08:04:59.810Z,98636.38
2023-04-30T08:07:27.224Z,98643.56
2023-04-30T08:09:54.887Z,98642.81
2023-04-30T08:12:22.450Z,98642.13
2023-04-30T08:14:49.913Z,98644.22
2023-04-30T08:17:17.402Z,98643.81
2023-04-30T08:19:45.987Z,98638.75
2023-04-30T08:22:13.474Z,98642.72
2023-04-30T08:24:41.000Z,98638.31
2023-04-30T08:27:08.524Z,98640.84
2023-04-30T08:29:36.004Z,98636.09
2023-04-30T08:32:05.814Z,98627.00
2023-04-30T08:34:33.565Z,98629.72
2023-04-30T08:37:01.661Z,98621.84
2023-04-30T08:39:29.130Z,98621.88
2023-04-30T08:42:00.907Z,98625.47
2023-04-30T08:44:29.361Z,98627.25
2023-04-30T08:47:00.788Z,98623.75
2023-04-30T08:49:32.947Z,98617.13
2023-04-30T08:52:01.329Z,98621.75
2023-04-30T08:54:34.625Z,98620.31
2023-04-30T08:57:02.752Z,98621.50
2023-04-30T08:59:30.564Z,98620.75
2023-04-30T09:02:00.086Z,98618.72
2023-04-30T09:04:28.086Z,98615.53
2023-04-30T09:07:04.553Z,98617.91
2023-04-30T09:09:39.363Z,98613.16
2023-04-30T09:12:20.036Z,98598.50
2023-04-30T09:15:06.574Z,98610.06
2023-04-30T09:17:36.102Z,98600.53
2023-04-30T09:20:14.808Z,98599.72
2023-04-30T09:22:43.232Z,98602.91
2023-04-30T09:25:14.059Z,98604.94
2023-04-30T09:27:41.537Z,98597.34
2023-04-30T09:30:30.052Z,98611.66
2023-04-30T09:32:57.495Z,98600.09
2023-04-30T09:35:40.435Z,98597.25
2023-04-30T09:38:08.211Z,98598.47
2023-04-30T09:40:42.118Z,98594.06
2023-04-30T09:43:09.827Z,98599.69
2023-04-30T09:45:52.757Z,98598.03
2023-04-30T09:48:24.597Z,98591.25
2023-04-30T09:50:52.699Z,98593.59
2023-04-30T09:53:21.030Z,98586.09
2023-04-30T09:55:51.872Z,98588.78
2023-04-30T09:58:20.478Z,98591.66
2023-04-30T10:00:50.679Z,98594.38
2023-04-30T10:03:19.258Z,98596.38
2023-04-30T10:05:50.180Z,98587.53
2023-04-30T10:08:46.922Z,98595.53
2023-04-30T10:11:21.996Z,98586.28
2023-04-30T10:14:11.894Z,98583.97
2023-04-30T10:17:14.945Z,98574.06
2023-04-30T10:19:49.898Z,98572.06
2023-04-30T10:22:18.335Z,98576.38
2023-04-30T10:24:47.539Z,98581.53
2023-04-30T10:27:15.248Z,98571.03
2023-04-30T10:29:44.428Z,98577.13
2023-04-30T10:32:14.129Z,98571.81
2023-04-30T10:35:21.191Z,98561.84
2023-04-30T10:38:13.110Z,98561.66
2023-04-30T10:40:40.696Z,98562.78
2023-04-30T10:43:11.126Z,98563.84
2023-04-30T10:45:43.939Z,98558.63
2023-04-30T10:48:11.800Z,98554.03
2023-04-30T10:50:46.720Z,98556.22
2023-04-30T10:53:21.031Z,98535.31
2023-04-30T10:56:09.337Z,98544.97
2023-04-30T10:58:40.585Z,98543.94
2023-04-30T11:01:15.576Z,98532.59
2023-04-30T11:04:08.865Z,98538.06
2023-04-30T11:07:07.318Z,98537.66
2023-04-30T11:09:39.544Z,98546.91
2023-04-30T11:12:33.461Z,98537.03
2023-04-30T11:15:15.869Z,98529.91
2023-04-30T11:17:48.108Z,98529.00
2023-04-30T11:20:23.582Z,98531.47
2023-04-30T11:23:32.269Z,98534.06
2023-04-30T11:26:08.240Z,98525.69
2023-04-30T11:28:38.555Z,98519.69
2023-04-30T11:31:06.495Z,98529.22
2023-04-30T11:33:35.688Z,98526.56
2023-04-30T11:36:03.910Z,98530.25
2023-04-30T11:38:37.085Z,98529.06
2023-04-30T11:41:05.654Z,98521.66
2023-04-30T11:43:35.126Z,98529.03
2023-04-30T11:46:13.338Z,98523.00
2023-04-30T11:48:45.561Z,98513.63
2023-04-30T11:51:25.107Z,98511.97
2023-04-30T11:53:53.834Z,98513.16
2023-04-30T11:56:26.241Z,98512.72
2023-04-30T11:58:55.870Z,98507.66
2023-04-30T12:01:30.994Z,98516.78
2023-04-30T12:03:58.865Z,98515.81
2023-04-30T12:06:29.366Z,98520.09
2023-04-30T12:09:04.242Z,98500.47
2023-04-30T12:11:35.064Z,98505.75
2023-04-30T12:14:10.738Z,98503.97
2023-04-30T12:16:50.617Z,98509.47
2023-04-30T12:19:25.444Z,98505.72
2023-04-30T12:21:55.190Z,98494.34
2023-04-30T12:24:27.172Z,98503.34
2023-04-30T12:26:54.847Z,98496.81
2023-04-30T12:29:25.080Z,98497.81
2023-04-30T12:31:54.067Z,98496.75
2023-04-30T12:34:22.097Z,98494.78
2023-04-30T12:36:50.095Z,98506.91
2023-04-30T12:39:17.843Z,98504.59
2023-04-30T12:41:49.779Z,98503.94
2023-04-30T12:44:28.396Z,98502.72
2023-04-30T12:47:00.723Z,98504.78
2023-04-30T12:49:36.792Z,98505.59
2023-04-30T12:52:14.422Z,98495.22
2023-04-30T12:54:42.035Z,98493.75
2023-04-30T12:57:13.162Z,98496.13
2023-04-30T13:00:00.512Z,98494.78
2023-04-30T13:02:32.311Z,98498.97
2023-04-30T13:05:00.096Z,98497.53
2023-04-30T13:07:40.831Z,98497.34
2023-04-30T13:10:09.813Z,98490.84
2023-04-30T13:12:37.228Z,98476.00
2023-04-30T13:15:05.684Z,98491.88
2023-04-30T13:17:33.587Z,98492.00
2023-04-30T13:20:01.079Z,98473.28
2023-04-30T13:22:29.762Z,98483.09
2023-04-30T13:24:57.886Z,98480.25
2023-04-30T13:27:25.398Z,98475.25
2023-04-30T13:29:53.841Z,98478.69
2023-04-30T13:32:21.611Z,98461.00
2023-04-30T13:34:49.356Z,98460.16
2023-04-30T13:37:17.014Z,98456.38
2023-04-30T13:39:44.517Z,98456.94
2023-04-30T13:42:12.089Z,98457.31
2023-04-30T13:44:40.506Z,98453.75
2023-04-30T13:47:08.417Z,98453.16
2023-04-30T13:49:36.403Z,98452.81
2023-04-30T13:52:06.958Z,98456.38
2023-04-30T13:54:34.443Z,98448.53
2023-04-30T13:57:01.963Z,98447.06
2023-04-30T13:59:29.661Z,98448.63
2023-04-30T14:01:57.411Z,98431.75
2023-04-30T14:04:24.924Z,98445.44
2023-04-30T14:06:56.594Z,98436.22
2023-04-30T14:09:24.540Z,98441.91
2023-04-30T14:11:51.964Z,98440.34
2023-04-30T14:14:19.367Z,98441.72
2023-04-30T14:16:46.856Z,98438.44
2023-04-30T14:19:14.464Z,98436.16
2023-04-30T14:21:42.179Z,98427.38
2023-04-30T14:24:12.629Z,98445.81
2023-04-30T14:26:43.489Z,98445.03
2023-04-30T14:29:11.142Z,98438.03
2023-04-30T14:31:38.847Z,98425.84
2023-04-30T14:34:06.330Z,98431.06
2023-04-30T14:36:36.291Z,98428.00
2023-04-30T14:39:04.812Z,98431.72
2023-04-30T14:41:38.373Z,98427.28
2023-04-30T14:44:06.280Z,98423.16
2023-04-30T14:46:34.918Z,98428.75
2023-04-30T14:49:02.561Z,98428.38
2023-04-30T14:51:32.039Z,98428.38
2023-04-30T14:54:00.632Z,98426.66
2023-04-30T14:56:28.246Z,98429.53
2023-04-30T14:58:55.772Z,98429.25
2023-04-30T15:01:23.597Z,98418.44
2023-04-30T15:03:51.247Z,98422.00
2023-04-30T15:06:19.463Z,98409.25
2023-04-30T15:08:47.102Z,98416.13
2023-04-30T15:11:14.938Z,98423.66
2023-04-30T15:13:42.415Z,98417.66
2023-04-30T15:16:10.033Z,98420.88
2023-04-30T15:18:37.580Z,98419.16
2023-04-30T15:21:05.402Z,98418.94
2023-04-30T15:23:33.767Z,98420.28
2023-04-30T15:26:03.857Z,98415.63
2023-04-30T15:28:34.749Z,98415.00
2023-04-30T15:31:03.197Z,98415.84
2023-04-30T15:33:31.580Z,98412.41
2023-04-30T15:35:59.733Z,98422.91
2023-04-30T15:38:27.603Z,98409.28
2023-04-30T15:40:55.029Z,98422.50
2023-04-30T15:43:22.447Z,98419.91
2023-04-30T15:45:50.127Z,98420.97
2023-04-30T15:48:17.609Z,98422.03
2023-04-30T15:50:45.053Z,98420.00
2023-04-30T15:53:12.619Z,98416.50
2023-04-30T15:55:40.548Z,98417.75
2023-04-30T15:58:08.108Z,98411.47
2023-04-30T16:00:35.700Z,98421.28
2023-04-30T16:03:03.260Z,98419.22
2023-04-30T16:05:31.607Z,98412.50
2023-04-30T16:07:59.859Z,98413.88
2023-04-30T16:10:27.775Z,98416.00
2023-04-30T16:12:55.266Z,98414.81
2023-04-30T16:15:24.373Z,98413.00
2023-04-30T16:17:52.215Z,98420.53
2023-04-30T16:20:20.595Z,98421.19
2023-04-30T16:22:49.730Z,98422.44
2023-04-30T16:25:17.348Z,98418.34
2023-04-30T16:27:45.215Z,98421.78
2023-04-30T16:30:13.720Z,98422.44
2023-04-30T16:32:41.882Z,98430.72
2023-04-30T16:35:10.048Z,98421.75
2023-04-30T16:37:37.501Z,98427.53
2023-04-30T16:40:07.705Z,98422.72
2023-04-30T16:42:35.568Z,98418.22
2023-04-30T16:45:03.714Z,98419.44
2023-04-30T16:47:32.056Z,98430.31
2023-04-30T16:50:00.669Z,98421.00
2023-04-30T16:52:28.815Z,98410.22
2023-04-30T16:54:56.238Z,98423.44
2023-04-30T16:57:25.320Z,98412.31
2023-04-30T16:59:53.326Z,98421.94
2023-04-30T17:02:21.266Z,98414.25
2023-04-30T17:04:48.832Z,98411.06
2023-04-30T17:07:17.567Z,98418.97
2023-04-30T17:09:46.081Z,98423.28
2023-04-30T17:12:13.569Z,98419.97
2023-04-30T17:14:41.018Z,98418.69
2023-04-30T17:17:08.546Z,98419.19
2023-04-30T17:19:36.058Z,98420.09
2023-04-30T17:22:03.674Z,98424.53
2023-04-30T17:24:31.187Z,98422.41
2023-04-30T17:27:01.026Z,98424.28
2023-04-30T17:29:28.634Z,98419.50
2023-04-30T17:31:56.466Z,98424.16
2023-04-30T17:34:24.145Z,98429.03
2023-04-30T17:36:51.633Z,98426.84
2023-04-30T17:39:19.549Z,98432.34
2023-04-30T17:41:47.442Z,98427.28
2023-04-30T17:44:15.989Z,98430.66
2023-04-30T17:46:43.932Z,98429.03
2023-04-30T17:49:11.370Z,98433.81
2023-04-30T17:51:38.840Z,98429.81
2023-04-30T17:54:06.325Z,98433.66
2023-04-30T17:56:39.626Z,98435.25
2023-04-30T17:59:07.692Z,98435.22
2023-04-30T18:01:35.237Z,98434.06
2023-04-30T18:04:03.921Z,98428.53
2023-04-30T18:06:31.515Z,98436.53
2023-04-30T18:09:01.450Z,98432.38
2023-04-30T18:11:29.233Z,98434.47
2023-04-30T18:13:56.688Z,98442.47
2023-04-30T18:16:24.267Z,98433.44
2023-04-30T18:18:51.786Z,98430.59
2023-04-30T18:21:19.464Z,98439.75
2023-04-30T18:23:48.156Z,98431.88
2023-04-30T18:26:15.685Z,98433.50
2023-04-30T18:28:43.170Z,98441.38
2023-04-30T18:31:11.799Z,98441.13
2023-04-30T18:33:40.075Z,98439.13
2023-04-30T18:36:07.724Z,98440.66
2023-04-30T18:38:35.534Z,98433.34
2023-04-30T18:41:02.997Z,98441.28
2023-04-30T18:43:30.690Z,98436.78
2023-04-30T18:45:58.840Z,98439.81
2023-04-30T18:48:26.361Z,98441.50
2023-04-30T18:50:53.819Z,98434.19
2023-04-30T18:53:21.299Z,98436.44
2023-04-30T18:55:48.705Z,98443.13
2023-04-30T18:58:16.141Z,98444.34
2023-04-30T19:00:43.791Z,98447.84
2023-04-30T19:03:11.385Z,98439.13
2023-04-30T19:05:38.901Z,98441.63
2023-04-30T19:08:08.008Z,98444.75
2023-04-30T19:10:36.458Z,98453.44
2023-04-30T19:13:04.239Z,98455.41
2023-04-30T19:15:31.752Z,98450.09
2023-04-30T19:17:59.379Z,98457.81
2023-04-30T19:20:27.012Z,98460.75
2023-04-30T19:22:54.452Z,98460.16
2023-04-30T19:25:23.549Z,98468.09
2023-04-30T19:27:51.601Z,98456.59
2023-04-30T19:30:19.107Z,98467.47
2023-04-30T19:32:47.064Z,98468.78
2023-04-30T19:35:15.486Z,98473.19
2023-04-30T19:37:43.033Z,98470.38
2023-04-30T19:40:12.079Z,98467.72
2023-04-30T19:42:40.231Z,98471.22
2023-04-30T19:45:09.895Z,98479.66
2023-04-30T19:47:38.274Z,98469.84
2023-04-30T19:50:07.318Z,98482.25
2023-04-30T19:52:34.821Z,98475.22
2023-04-30T19:55:02.422Z,98478.59
2023-04-30T19:57:34.943Z,98472.94
2023-04-30T20:00:04.578Z,98473.84
2023-04-30T20:03:23.993Z,98486.50
2023-04-30T20:05:52.479Z,98476.31
2023-04-30T20:08:20.117Z,98477.47
2023-04-30T20:10:49.165Z,98464.72
2023-04-30T20:13:17.937Z,98477.13
2023-04-30T20:15:45.593Z,98475.63
2023-04-30T20:18:13.176Z,98477.31
2023-04-30T20:20:40.618Z,98472.06
2023-04-30T20:23:17.838Z,98469.97
2023-04-30T20:25:46.792Z,98476.72
2023-04-30T20:28:18.429Z,98479.69
2023-04-30T20:30:48.198Z,98474.06
2023-04-30T20:33:16.160Z,98480.53
2023-04-30T20:35:46.247Z,98477.72
2023-04-30T20:38:17.264Z,98455.91
2023-04-30T20:40:46.496Z,98479.25
2023-04-30T20:43:14.197Z,98475.75
2023-04-30T20:45:43.837Z,98474.13
2023-04-30T20:48:11.462Z,98474.56
2023-04-30T20:50:39.136Z,98465.44
2023-04-30T20:53:08.347Z,98475.38
2023-04-30T20:55:37.020Z,98477.25
2023-04-30T20:58:04.567Z,98480.09
2023-04-30T21:00:32.075Z,98470.50
2023-04-30T21:02:59.765Z,98479.69
2023-04-30T21:05:30.228Z,98468.97
2023-04-30T21:08:02.204Z,98470.94
2023-04-30T21:10:36.556Z,98467.00
2023-04-30T21:13:06.092Z,98477.34
2023-04-30T21:15:36.408Z,98466.59
2023-04-30T21:18:04.312Z,98471.78
2023-04-30T21:20:32.171Z,98473.41
2023-04-30T21:22:59.797Z,98471.41
2023-04-30T21:25:27.388Z,98470.19
2023-04-30T21:27:55.412Z,98476.56
2023-04-30T21:30:25.640Z,98464.25
2023-04-30T21:32:58.722Z,98461.53
2023-04-30T21:35:30.406Z,98462.25
2023-04-30T21:37:57.999Z,98459.91
2023-04-30T21:40:25.763Z,98466.25
2023-04-30T21:42:53.359Z,98462.69
2023-04-30T21:45:20.989Z,98461.50
2023-04-30T21:47:48.868Z,98463.06
2023-04-30T21:50:17.099Z,98462.28
2023-04-30T21:52:44.683Z,98458.75
2023-04-30T21:55:12.480Z,98472.66
2023-04-30T21:57:39.932Z,98460.31
2023-04-30T22:00:14.477Z,98459.94
2023-04-30T22:02:42.623Z,98462.31
2023-04-30T22:05:13.044Z,98461.13
2023-04-30T22:07:41.334Z,98461.88
2023-04-30T22:10:10.724Z,98456.72
2023-04-30T22:12:38.726Z,98463.03
2023-04-30T22:15:08.271Z,98457.50
2023-04-30T22:17:35.793Z,98451.56
2023-04-30T22:20:06.903Z,98449.16
2023-04-30T22:22:34.892Z,98450.34
2023-04-30T22:25:02.964Z,98455.97
2023-04-30T22:27:31.520Z,98440.06
2023-04-30T22:29:59.193Z,98447.25
2023-04-30T22:32:26.713Z,98452.78
2023-04-30T22:34:54.335Z,98439.69
2023-04-30T22:37:21.892Z,98441.25
2023-04-30T22:39:49.682Z,98442.47
2023-04-30T22:42:17.205Z,98439.31
2023-04-30T22:44:45.501Z,98434.94
2023-04-30T22:47:13.324Z,98436.13
2023-04-30T22:49:41.283Z,98438.13
2023-04-30T22:52:09.027Z,98440.88
2023-04-30T22:54:36.709Z,98438.50
2023-04-30T22:57:04.260Z,98439.28
2023-04-30T22:59:31.850Z,98442.88
2023-04-30T23:01:59.671Z,98445.66
2023-04-30T23:04:28.499Z,98441.66
2023-04-30T23:06:56.709Z,98443.69
2023-04-30T23:09:24.870Z,98439.28
2023-04-30T23:11:52.348Z,98440.47
2023-04-30T23:14:20.021Z,98437.72
2023-04-30T23:16:47.550Z,98444.84
2023-04-30T23:19:15.041Z,98436.91
2023-04-30T23:21:42.663Z,98440.91
2023-04-30T23:24:11.256Z,98433.72
2023-04-30T23:26:38.924Z,98427.81
2023-04-30T23:29:06.369Z,98430.56
2023-04-30T23:31:33.844Z,98432.16
2023-04-30T23:34:01.431Z,98429.00
2023-04-30T23:36:28.966Z,98439.31
2023-04-30T23:38:56.735Z,98438.13
